West Lake — 3FHS5 — position and weather

sailwx.info

Track history (hours):
 
Tides and Currents Weather Stations Pressure Air Temp Water Temp Dewpoint Dewpoint Depression Visibility Wind Speed Wind Dir Waves Ship Positions

West Lake

Last reported at 2017-Dec-18 20:07 UTC. Time now 2018-Jan-18 12:20 UTC.
Position S 30°33' E 030°55'.
Warning: this ship's position is 30 days out of date.

Length 188 m; draft 6.1 m.

Type: Cargo ship. MMSI: 355304000.

Date/timePositionNaut miles runAvg speedWind from/ knotsBaromVisibWave heightAir tempDewpointWater temp
2017-Dec-18 20:07S 30°33' E 030°55'212.0
2017-Dec-18 19:56S 30°31' E 030°56'511.9
2017-Dec-18 19:31S 30°27' E 030°60'612.3
2017-Dec-18 19:00S 30°22' E 031°04'611.7
2017-Dec-18 18:31S 30°17' E 031°08'611.5
2017-Dec-18 18:01S 30°13' E 031°12'612.6
2017-Dec-18 17:31S 30°08' E 031°17'713.5
2017-Dec-18 17:00S 30°02' E 031°21'714.0
2017-Dec-18 16:30S 29°56' E 031°25'713.6
2017-Dec-18 16:00S 29°51' E 031°30'713.9
2017-Dec-18 15:30S 29°45' E 031°34'714.5
2017-Dec-18 15:00S 29°39' E 031°39'714.8
2017-Dec-18 14:30S 29°33' E 031°43'714.6
2017-Dec-18 14:00S 29°27' E 031°48'714.5
2017-Dec-18 13:30S 29°21' E 031°53'714.9
2017-Dec-18 13:00S 29°15' E 031°57'1015.6
2017-Dec-18 12:22S 29°06' E 032°04'816.1
2017-Dec-18 11:53S 29°00' E 032°10'615.5
2017-Dec-18 11:30S 28°55' E 032°12'11 0.2
2017-Dec-16 15:05S 28°47' E 032°03'0 0.0
2017-Dec-16 14:59S 28°47' E 032°03'0 0.0
2017-Dec-16 14:26S 28°47' E 032°03'0 0.0
2017-Dec-16 13:56S 28°47' E 032°03'0 0.0
2017-Dec-16 13:26S 28°47' E 032°03'  
Track history (hours):
 
Tides and Currents Weather Stations Pressure Air Temp Water Temp Dewpoint Dewpoint Depression Visibility Wind Speed Wind Dir Waves Ship Positions

West Lake

Last reported at 2017-Dec-18 20:07 UTC. Time now 2018-Jan-18 12:20 UTC.
Position S 30°33' E 030°55'.
Warning: this ship's position is 30 days out of date.

Length 188 m; draft 6.1 m.

Type: Cargo ship. MMSI: 355304000.

Date/timePositionNaut miles runAvg speedWind from/ knotsBaromVisibWave heightAir tempDewpointWater temp
2017-Dec-18 20:07S 30°33' E 030°55'212.0
2017-Dec-18 19:56S 30°31' E 030°56'511.9
2017-Dec-18 19:31S 30°27' E 030°60'612.3
2017-Dec-18 19:00S 30°22' E 031°04'611.7
2017-Dec-18 18:31S 30°17' E 031°08'611.5
2017-Dec-18 18:01S 30°13' E 031°12'612.6
2017-Dec-18 17:31S 30°08' E 031°17'713.5
2017-Dec-18 17:00S 30°02' E 031°21'714.0
2017-Dec-18 16:30S 29°56' E 031°25'713.6
2017-Dec-18 16:00S 29°51' E 031°30'713.9
2017-Dec-18 15:30S 29°45' E 031°34'714.5
2017-Dec-18 15:00S 29°39' E 031°39'714.8
2017-Dec-18 14:30S 29°33' E 031°43'714.6
2017-Dec-18 14:00S 29°27' E 031°48'714.5
2017-Dec-18 13:30S 29°21' E 031°53'714.9
2017-Dec-18 13:00S 29°15' E 031°57'1015.6
2017-Dec-18 12:22S 29°06' E 032°04'816.1
2017-Dec-18 11:53S 29°00' E 032°10'615.5
2017-Dec-18 11:30S 28°55' E 032°12'11 0.2
2017-Dec-16 15:05S 28°47' E 032°03'0 0.0
2017-Dec-16 14:59S 28°47' E 032°03'0 0.0
2017-Dec-16 14:26S 28°47' E 032°03'0 0.0
2017-Dec-16 13:56S 28°47' E 032°03'0 0.0
2017-Dec-16 13:26S 28°47' E 032°03'  

Dump ship's entire track history